sensor_id;sensor_type;location;lat;lon;timestamp;P1;durP1;ratioP1;P2;durP2;ratioP2
64609;SDS011;51019;46.090;6.350;2023-09-19T00:01:42;10.82;;;2.67;;
64609;SDS011;51019;46.090;6.350;2023-09-19T00:04:12;9.65;;;2.65;;
64609;SDS011;51019;46.090;6.350;2023-09-19T00:06:40;8.90;;;2.35;;
64609;SDS011;51019;46.090;6.350;2023-09-19T00:09:08;9.30;;;2.65;;
64609;SDS011;51019;46.090;6.350;2023-09-19T00:11:35;8.30;;;2.40;;
64609;SDS011;51019;46.090;6.350;2023-09-19T00:14:03;12.48;;;2.40;;
64609;SDS011;51019;46.090;6.350;2023-09-19T00:16:33;9.50;;;2.33;;
64609;SDS011;51019;46.090;6.350;2023-09-19T00:19:01;12.77;;;2.65;;
64609;SDS011;51019;46.090;6.350;2023-09-19T00:21:34;11.43;;;2.75;;
64609;SDS011;51019;46.090;6.350;2023-09-19T00:24:03;12.30;;;2.85;;
64609;SDS011;51019;46.090;6.350;2023-09-19T00:26:31;11.35;;;2.70;;
64609;SDS011;51019;46.090;6.350;2023-09-19T00:32:21;10.00;;;2.60;;
64609;SDS011;51019;46.090;6.350;2023-09-19T00:34:47;11.32;;;2.85;;
64609;SDS011;51019;46.090;6.350;2023-09-19T00:37:16;9.90;;;2.67;;
64609;SDS011;51019;46.090;6.350;2023-09-19T00:39:43;10.27;;;2.45;;
64609;SDS011;51019;46.090;6.350;2023-09-19T00:42:17;12.27;;;2.58;;
64609;SDS011;51019;46.090;6.350;2023-09-19T00:48:08;10.63;;;2.03;;
64609;SDS011;51019;46.090;6.350;2023-09-19T00:50:35;9.40;;;2.38;;
64609;SDS011;51019;46.090;6.350;2023-09-19T00:53:07;10.77;;;2.20;;
64609;SDS011;51019;46.090;6.350;2023-09-19T00:55:35;7.90;;;1.88;;
64609;SDS011;51019;46.090;6.350;2023-09-19T00:58:03;8.40;;;2.30;;
64609;SDS011;51019;46.090;6.350;2023-09-19T01:00:31;10.93;;;2.10;;
64609;SDS011;51019;46.090;6.350;2023-09-19T01:03:00;7.78;;;2.10;;
64609;SDS011;51019;46.090;6.350;2023-09-19T01:05:27;9.18;;;2.03;;
64609;SDS011;51019;46.090;6.350;2023-09-19T01:07:54;11.73;;;2.58;;
64609;SDS011;51019;46.090;6.350;2023-09-19T01:10:24;8.63;;;2.35;;
64609;SDS011;51019;46.090;6.350;2023-09-19T01:12:54;9.23;;;2.22;;
64609;SDS011;51019;46.090;6.350;2023-09-19T01:15:32;9.20;;;2.13;;
64609;SDS011;51019;46.090;6.350;2023-09-19T01:18:11;8.60;;;2.10;;
64609;SDS011;51019;46.090;6.350;2023-09-19T01:20:51;9.88;;;2.33;;
64609;SDS011;51019;46.090;6.350;2023-09-19T01:23:25;10.63;;;2.13;;
64609;SDS011;51019;46.090;6.350;2023-09-19T01:26:10;8.35;;;2.17;;
64609;SDS011;51019;46.090;6.350;2023-09-19T01:28:54;8.90;;;2.25;;
64609;SDS011;51019;46.090;6.350;2023-09-19T01:31:41;9.48;;;2.15;;
64609;SDS011;51019;46.090;6.350;2023-09-19T01:34:10;9.45;;;2.35;;
64609;SDS011;51019;46.090;6.350;2023-09-19T01:36:38;8.68;;;2.40;;
64609;SDS011;51019;46.090;6.350;2023-09-19T01:39:05;7.90;;;1.90;;
64609;SDS011;51019;46.090;6.350;2023-09-19T01:41:46;9.52;;;2.10;;
64609;SDS011;51019;46.090;6.350;2023-09-19T01:44:21;7.65;;;2.17;;
64609;SDS011;51019;46.090;6.350;2023-09-19T01:46:53;8.30;;;2.10;;
64609;SDS011;51019;46.090;6.350;2023-09-19T01:49:27;11.55;;;2.53;;
64609;SDS011;51019;46.090;6.350;2023-09-19T01:52:04;7.60;;;2.15;;
64609;SDS011;51019;46.090;6.350;2023-09-19T01:54:40;9.10;;;2.10;;
64609;SDS011;51019;46.090;6.350;2023-09-19T01:57:14;8.07;;;2.03;;
64609;SDS011;51019;46.090;6.350;2023-09-19T01:59:45;8.35;;;2.25;;
64609;SDS011;51019;46.090;6.350;2023-09-19T02:02:19;11.18;;;2.28;;
64609;SDS011;51019;46.090;6.350;2023-09-19T02:04:48;7.03;;;2.00;;
64609;SDS011;51019;46.090;6.350;2023-09-19T02:07:17;10.98;;;2.65;;
64609;SDS011;51019;46.090;6.350;2023-09-19T02:09:44;7.85;;;1.90;;
64609;SDS011;51019;46.090;6.350;2023-09-19T02:12:13;8.18;;;2.00;;
64609;SDS011;51019;46.090;6.350;2023-09-19T02:14:40;7.90;;;2.03;;
64609;SDS011;51019;46.090;6.350;2023-09-19T02:17:07;9.25;;;2.00;;
64609;SDS011;51019;46.090;6.350;2023-09-19T02:19:38;10.52;;;2.13;;
64609;SDS011;51019;46.090;6.350;2023-09-19T02:22:06;8.90;;;2.33;;
64609;SDS011;51019;46.090;6.350;2023-09-19T02:24:35;8.77;;;2.30;;
64609;SDS011;51019;46.090;6.350;2023-09-19T02:27:03;9.45;;;2.33;;
64609;SDS011;51019;46.090;6.350;2023-09-19T02:29:32;9.75;;;2.20;;
64609;SDS011;51019;46.090;6.350;2023-09-19T02:32:00;11.20;;;2.28;;
64609;SDS011;51019;46.090;6.350;2023-09-19T02:34:28;9.68;;;2.30;;
64609;SDS011;51019;46.090;6.350;2023-09-19T02:36:57;8.43;;;2.35;;
64609;SDS011;51019;46.090;6.350;2023-09-19T02:39:25;9.50;;;2.65;;
64609;SDS011;51019;46.090;6.350;2023-09-19T02:41:53;9.88;;;2.33;;
64609;SDS011;51019;46.090;6.350;2023-09-19T02:44:20;8.52;;;2.58;;
64609;SDS011;51019;46.090;6.350;2023-09-19T02:46:49;10.98;;;2.58;;
64609;SDS011;51019;46.090;6.350;2023-09-19T02:49:15;8.95;;;2.55;;
64609;SDS011;51019;46.090;6.350;2023-09-19T02:51:43;8.05;;;2.20;;
64609;SDS011;51019;46.090;6.350;2023-09-19T02:54:12;8.77;;;2.40;;
64609;SDS011;51019;46.090;6.350;2023-09-19T02:56:40;9.95;;;2.42;;
64609;SDS011;51019;46.090;6.350;2023-09-19T02:59:07;9.18;;;2.58;;
64609;SDS011;51019;46.090;6.350;2023-09-19T03:01:35;9.90;;;2.45;;
64609;SDS011;51019;46.090;6.350;2023-09-19T03:04:03;11.18;;;2.60;;
64609;SDS011;51019;46.090;6.350;2023-09-19T03:06:31;8.40;;;2.33;;
64609;SDS011;51019;46.090;6.350;2023-09-19T03:08:58;9.07;;;3.10;;
64609;SDS011;51019;46.090;6.350;2023-09-19T03:11:27;10.05;;;2.60;;
64609;SDS011;51019;46.090;6.350;2023-09-19T03:13:54;7.68;;;1.98;;
64609;SDS011;51019;46.090;6.350;2023-09-19T03:16:21;9.20;;;2.20;;
64609;SDS011;51019;46.090;6.350;2023-09-19T03:18:48;9.35;;;2.30;;
64609;SDS011;51019;46.090;6.350;2023-09-19T03:21:15;10.70;;;2.70;;
64609;SDS011;51019;46.090;6.350;2023-09-19T03:23:44;11.35;;;2.40;;
64609;SDS011;51019;46.090;6.350;2023-09-19T03:26:12;8.80;;;2.20;;
64609;SDS011;51019;46.090;6.350;2023-09-19T03:28:42;9.20;;;2.05;;
64609;SDS011;51019;46.090;6.350;2023-09-19T03:31:11;10.02;;;2.28;;
64609;SDS011;51019;46.090;6.350;2023-09-19T03:33:38;9.95;;;2.38;;
64609;SDS011;51019;46.090;6.350;2023-09-19T03:36:05;10.98;;;2.67;;
64609;SDS011;51019;46.090;6.350;2023-09-19T03:38:33;10.52;;;2.60;;
64609;SDS011;51019;46.090;6.350;2023-09-19T03:41:00;9.25;;;2.38;;
64609;SDS011;51019;46.090;6.350;2023-09-19T03:43:28;12.95;;;2.78;;
64609;SDS011;51019;46.090;6.350;2023-09-19T03:45:56;10.18;;;2.38;;
64609;SDS011;51019;46.090;6.350;2023-09-19T03:48:28;9.27;;;2.60;;
64609;SDS011;51019;46.090;6.350;2023-09-19T03:50:55;9.90;;;2.50;;
64609;SDS011;51019;46.090;6.350;2023-09-19T03:53:23;9.13;;;2.28;;
64609;SDS011;51019;46.090;6.350;2023-09-19T03:55:50;11.98;;;2.63;;
64609;SDS011;51019;46.090;6.350;2023-09-19T03:58:16;9.48;;;2.70;;
64609;SDS011;51019;46.090;6.350;2023-09-19T04:00:44;12.45;;;2.70;;
64609;SDS011;51019;46.090;6.350;2023-09-19T04:03:12;10.02;;;2.50;;
64609;SDS011;51019;46.090;6.350;2023-09-19T04:05:45;11.30;;;2.88;;
64609;SDS011;51019;46.090;6.350;2023-09-19T04:08:13;9.70;;;2.42;;
64609;SDS011;51019;46.090;6.350;2023-09-19T04:10:41;12.20;;;3.00;;
64609;SDS011;51019;46.090;6.350;2023-09-19T04:13:09;9.77;;;2.67;;
64609;SDS011;51019;46.090;6.350;2023-09-19T04:15:36;10.68;;;2.60;;
64609;SDS011;51019;46.090;6.350;2023-09-19T04:18:05;11.75;;;2.50;;
64609;SDS011;51019;46.090;6.350;2023-09-19T04:20:34;11.95;;;3.42;;
64609;SDS011;51019;46.090;6.350;2023-09-19T04:23:01;8.75;;;2.30;;
64609;SDS011;51019;46.090;6.350;2023-09-19T04:25:27;9.35;;;2.28;;
64609;SDS011;51019;46.090;6.350;2023-09-19T04:27:55;9.15;;;2.70;;
64609;SDS011;51019;46.090;6.350;2023-09-19T04:30:23;11.85;;;2.40;;
64609;SDS011;51019;46.090;6.350;2023-09-19T04:32:49;10.88;;;2.50;;
64609;SDS011;51019;46.090;6.350;2023-09-19T04:35:16;10.73;;;2.45;;
64609;SDS011;51019;46.090;6.350;2023-09-19T04:37:45;10.10;;;2.58;;
64609;SDS011;51019;46.090;6.350;2023-09-19T04:40:13;9.60;;;2.13;;
64609;SDS011;51019;46.090;6.350;2023-09-19T04:42:42;11.85;;;2.58;;
64609;SDS011;51019;46.090;6.350;2023-09-19T04:45:10;9.30;;;2.67;;
64609;SDS011;51019;46.090;6.350;2023-09-19T04:47:37;10.88;;;2.40;;
64609;SDS011;51019;46.090;6.350;2023-09-19T04:50:09;11.23;;;2.40;;
64609;SDS011;51019;46.090;6.350;2023-09-19T04:52:39;9.32;;;2.28;;
64609;SDS011;51019;46.090;6.350;2023-09-19T04:55:11;9.98;;;2.40;;
64609;SDS011;51019;46.090;6.350;2023-09-19T04:57:41;11.47;;;2.67;;
64609;SDS011;51019;46.090;6.350;2023-09-19T05:00:10;9.18;;;2.55;;
64609;SDS011;51019;46.090;6.350;2023-09-19T05:02:39;9.55;;;2.65;;
64609;SDS011;51019;46.090;6.350;2023-09-19T05:05:07;10.15;;;2.20;;
64609;SDS011;51019;46.090;6.350;2023-09-19T05:07:35;9.40;;;1.98;;
64609;SDS011;51019;46.090;6.350;2023-09-19T05:10:02;11.13;;;2.17;;
64609;SDS011;51019;46.090;6.350;2023-09-19T05:12:34;7.85;;;2.00;;
64609;SDS011;51019;46.090;6.350;2023-09-19T05:15:01;6.75;;;2.10;;
64609;SDS011;51019;46.090;6.350;2023-09-19T05:17:32;10.43;;;2.05;;
64609;SDS011;51019;46.090;6.350;2023-09-19T05:19:59;6.53;;;1.70;;
64609;SDS011;51019;46.090;6.350;2023-09-19T05:22:40;10.35;;;2.10;;
64609;SDS011;51019;46.090;6.350;2023-09-19T05:25:08;5.57;;;1.60;;
64609;SDS011;51019;46.090;6.350;2023-09-19T05:27:37;7.35;;;2.22;;
64609;SDS011;51019;46.090;6.350;2023-09-19T05:30:05;7.97;;;2.10;;
64609;SDS011;51019;46.090;6.350;2023-09-19T05:32:33;9.02;;;1.95;;
64609;SDS011;51019;46.090;6.350;2023-09-19T05:35:00;8.55;;;2.40;;
64609;SDS011;51019;46.090;6.350;2023-09-19T05:37:28;6.72;;;1.92;;
64609;SDS011;51019;46.090;6.350;2023-09-19T05:39:54;8.40;;;2.30;;
64609;SDS011;51019;46.090;6.350;2023-09-19T05:42:22;7.55;;;2.03;;
64609;SDS011;51019;46.090;6.350;2023-09-19T05:44:51;10.23;;;2.70;;
64609;SDS011;51019;46.090;6.350;2023-09-19T05:47:18;9.95;;;2.50;;
64609;SDS011;51019;46.090;6.350;2023-09-19T05:49:45;8.70;;;1.85;;
64609;SDS011;51019;46.090;6.350;2023-09-19T05:52:14;6.68;;;1.90;;
64609;SDS011;51019;46.090;6.350;2023-09-19T05:54:42;8.07;;;1.90;;
64609;SDS011;51019;46.090;6.350;2023-09-19T05:57:09;10.50;;;3.28;;
64609;SDS011;51019;46.090;6.350;2023-09-19T05:59:37;8.63;;;2.20;;
64609;SDS011;51019;46.090;6.350;2023-09-19T06:02:06;9.95;;;2.78;;
64609;SDS011;51019;46.090;6.350;2023-09-19T06:04:34;11.90;;;2.80;;
64609;SDS011;51019;46.090;6.350;2023-09-19T06:07:04;11.82;;;2.80;;
64609;SDS011;51019;46.090;6.350;2023-09-19T06:09:31;9.70;;;2.55;;
64609;SDS011;51019;46.090;6.350;2023-09-19T06:11:58;9.43;;;2.60;;
64609;SDS011;51019;46.090;6.350;2023-09-19T06:14:28;9.02;;;2.28;;
64609;SDS011;51019;46.090;6.350;2023-09-19T06:16:56;10.15;;;2.75;;
64609;SDS011;51019;46.090;6.350;2023-09-19T06:19:25;10.50;;;2.30;;
64609;SDS011;51019;46.090;6.350;2023-09-19T06:21:52;8.45;;;2.15;;
64609;SDS011;51019;46.090;6.350;2023-09-19T06:24:19;9.18;;;2.42;;
64609;SDS011;51019;46.090;6.350;2023-09-19T06:26:46;10.68;;;2.60;;
64609;SDS011;51019;46.090;6.350;2023-09-19T06:29:14;7.78;;;2.13;;
64609;SDS011;51019;46.090;6.350;2023-09-19T06:31:41;10.15;;;2.25;;
64609;SDS011;51019;46.090;6.350;2023-09-19T06:34:09;11.07;;;2.63;;
64609;SDS011;51019;46.090;6.350;2023-09-19T06:36:38;12.15;;;2.90;;
64609;SDS011;51019;46.090;6.350;2023-09-19T06:39:06;10.48;;;2.42;;
64609;SDS011;51019;46.090;6.350;2023-09-19T06:41:36;10.50;;;2.60;;
64609;SDS011;51019;46.090;6.350;2023-09-19T06:44:03;9.85;;;2.40;;
64609;SDS011;51019;46.090;6.350;2023-09-19T06:46:31;8.73;;;2.50;;
64609;SDS011;51019;46.090;6.350;2023-09-19T06:49:00;10.80;;;2.30;;
64609;SDS011;51019;46.090;6.350;2023-09-19T06:51:31;10.95;;;2.60;;
64609;SDS011;51019;46.090;6.350;2023-09-19T06:53:59;12.30;;;2.92;;
64609;SDS011;51019;46.090;6.350;2023-09-19T06:56:27;10.65;;;2.67;;
64609;SDS011;51019;46.090;6.350;2023-09-19T06:58:54;10.27;;;2.95;;
64609;SDS011;51019;46.090;6.350;2023-09-19T07:01:21;9.32;;;2.33;;
64609;SDS011;51019;46.090;6.350;2023-09-19T07:03:48;10.02;;;2.53;;
64609;SDS011;51019;46.090;6.350;2023-09-19T07:06:15;12.00;;;2.95;;
64609;SDS011;51019;46.090;6.350;2023-09-19T07:08:43;9.02;;;2.33;;
64609;SDS011;51019;46.090;6.350;2023-09-19T07:11:12;8.90;;;2.33;;
64609;SDS011;51019;46.090;6.350;2023-09-19T07:13:39;9.40;;;2.60;;
64609;SDS011;51019;46.090;6.350;2023-09-19T07:16:06;10.43;;;2.72;;
64609;SDS011;51019;46.090;6.350;2023-09-19T07:18:34;9.27;;;2.38;;
64609;SDS011;51019;46.090;6.350;2023-09-19T07:21:01;9.48;;;2.72;;
64609;SDS011;51019;46.090;6.350;2023-09-19T07:23:29;9.90;;;2.40;;
64609;SDS011;51019;46.090;6.350;2023-09-19T07:26:00;10.23;;;2.30;;
64609;SDS011;51019;46.090;6.350;2023-09-19T07:28:32;11.15;;;2.58;;
64609;SDS011;51019;46.090;6.350;2023-09-19T07:31:01;11.00;;;3.00;;
64609;SDS011;51019;46.090;6.350;2023-09-19T07:33:32;10.23;;;2.58;;
64609;SDS011;51019;46.090;6.350;2023-09-19T07:35:59;10.73;;;2.92;;
64609;SDS011;51019;46.090;6.350;2023-09-19T07:38:26;10.65;;;3.10;;
64609;SDS011;51019;46.090;6.350;2023-09-19T07:40:52;10.32;;;3.00;;
64609;SDS011;51019;46.090;6.350;2023-09-19T07:43:20;11.07;;;3.30;;
64609;SDS011;51019;46.090;6.350;2023-09-19T07:45:48;10.60;;;3.22;;
64609;SDS011;51019;46.090;6.350;2023-09-19T07:48:15;12.00;;;2.78;;
64609;SDS011;51019;46.090;6.350;2023-09-19T07:50:42;13.43;;;2.92;;
64609;SDS011;51019;46.090;6.350;2023-09-19T07:53:09;11.90;;;3.15;;
64609;SDS011;51019;46.090;6.350;2023-09-19T07:55:38;9.57;;;3.10;;
64609;SDS011;51019;46.090;6.350;2023-09-19T07:58:06;9.93;;;2.75;;
64609;SDS011;51019;46.090;6.350;2023-09-19T08:00:33;12.55;;;2.70;;
64609;SDS011;51019;46.090;6.350;2023-09-19T08:03:02;11.27;;;3.15;;
64609;SDS011;51019;46.090;6.350;2023-09-19T08:05:30;11.43;;;2.67;;
64609;SDS011;51019;46.090;6.350;2023-09-19T08:07:58;14.40;;;3.50;;
64609;SDS011;51019;46.090;6.350;2023-09-19T08:10:26;9.55;;;2.50;;
64609;SDS011;51019;46.090;6.350;2023-09-19T08:13:00;12.75;;;2.60;;
64609;SDS011;51019;46.090;6.350;2023-09-19T08:15:27;10.65;;;2.88;;
64609;SDS011;51019;46.090;6.350;2023-09-19T08:17:54;11.63;;;2.70;;
64609;SDS011;51019;46.090;6.350;2023-09-19T08:20:23;8.75;;;2.40;;
64609;SDS011;51019;46.090;6.350;2023-09-19T08:22:50;11.23;;;2.88;;
64609;SDS011;51019;46.090;6.350;2023-09-19T08:25:19;11.57;;;3.05;;
64609;SDS011;51019;46.090;6.350;2023-09-19T08:27:47;11.40;;;2.70;;
64609;SDS011;51019;46.090;6.350;2023-09-19T08:30:15;10.20;;;2.55;;
64609;SDS011;51019;46.090;6.350;2023-09-19T08:32:43;10.85;;;2.47;;
64609;SDS011;51019;46.090;6.350;2023-09-19T08:35:13;10.05;;;2.50;;
64609;SDS011;51019;46.090;6.350;2023-09-19T08:37:41;11.55;;;2.67;;
64609;SDS011;51019;46.090;6.350;2023-09-19T08:40:10;9.65;;;2.40;;
64609;SDS011;51019;46.090;6.350;2023-09-19T08:42:47;13.60;;;2.63;;
64609;SDS011;51019;46.090;6.350;2023-09-19T08:45:15;10.15;;;2.47;;
64609;SDS011;51019;46.090;6.350;2023-09-19T08:47:45;9.93;;;2.60;;
64609;SDS011;51019;46.090;6.350;2023-09-19T08:50:17;6.60;;;1.90;;
64609;SDS011;51019;46.090;6.350;2023-09-19T08:52:48;8.75;;;1.80;;
64609;SDS011;51019;46.090;6.350;2023-09-19T08:55:20;9.80;;;2.05;;
64609;SDS011;51019;46.090;6.350;2023-09-19T08:57:56;9.48;;;1.98;;
64609;SDS011;51019;46.090;6.350;2023-09-19T09:00:27;6.95;;;1.63;;
64609;SDS011;51019;46.090;6.350;2023-09-19T09:02:55;7.28;;;1.63;;
64609;SDS011;51019;46.090;6.350;2023-09-19T09:05:23;7.57;;;1.90;;
64609;SDS011;51019;46.090;6.350;2023-09-19T09:07:53;7.75;;;1.80;;
64609;SDS011;51019;46.090;6.350;2023-09-19T09:10:21;8.43;;;1.58;;
64609;SDS011;51019;46.090;6.350;2023-09-19T09:12:48;8.65;;;2.40;;
64609;SDS011;51019;46.090;6.350;2023-09-19T09:15:18;5.10;;;1.60;;
64609;SDS011;51019;46.090;6.350;2023-09-19T09:17:48;2.38;;;1.00;;
64609;SDS011;51019;46.090;6.350;2023-09-19T09:20:16;4.43;;;1.45;;
64609;SDS011;51019;46.090;6.350;2023-09-19T09:25:47;5.82;;;1.48;;
64609;SDS011;51019;46.090;6.350;2023-09-19T09:28:22;3.60;;;1.40;;
64609;SDS011;51019;46.090;6.350;2023-09-19T09:30:50;8.60;;;2.65;;
64609;SDS011;51019;46.090;6.350;2023-09-19T09:33:18;4.85;;;1.30;;
64609;SDS011;51019;46.090;6.350;2023-09-19T09:35:49;5.65;;;1.60;;
64609;SDS011;51019;46.090;6.350;2023-09-19T09:38:20;7.03;;;1.50;;
64609;SDS011;51019;46.090;6.350;2023-09-19T09:40:51;5.57;;;1.50;;
64609;SDS011;51019;46.090;6.350;2023-09-19T09:43:25;3.88;;;1.48;;
64609;SDS011;51019;46.090;6.350;2023-09-19T09:46:13;7.10;;;1.60;;
64609;SDS011;51019;46.090;6.350;2023-09-19T09:49:10;3.80;;;1.40;;
64609;SDS011;51019;46.090;6.350;2023-09-19T09:51:58;7.10;;;1.40;;
64609;SDS011;51019;46.090;6.350;2023-09-19T09:54:32;5.75;;;1.40;;
64609;SDS011;51019;46.090;6.350;2023-09-19T09:57:02;5.72;;;1.42;;
64609;SDS011;51019;46.090;6.350;2023-09-19T09:59:45;7.03;;;1.50;;
64609;SDS011;51019;46.090;6.350;2023-09-19T10:02:12;5.07;;;1.40;;
64609;SDS011;51019;46.090;6.350;2023-09-19T10:04:41;5.60;;;1.77;;
64609;SDS011;51019;46.090;6.350;2023-09-19T10:07:26;4.10;;;1.20;;
64609;SDS011;51019;46.090;6.350;2023-09-19T10:10:05;4.35;;;1.30;;
64609;SDS011;51019;46.090;6.350;2023-09-19T10:12:45;4.25;;;1.42;;
64609;SDS011;51019;46.090;6.350;2023-09-19T10:15:13;4.60;;;1.80;;
64609;SDS011;51019;46.090;6.350;2023-09-19T10:17:43;3.78;;;1.17;;
64609;SDS011;51019;46.090;6.350;2023-09-19T10:20:15;4.05;;;1.30;;
64609;SDS011;51019;46.090;6.350;2023-09-19T10:23:04;2.22;;;1.10;;
64609;SDS011;51019;46.090;6.350;2023-09-19T10:25:38;4.35;;;1.40;;
64609;SDS011;51019;46.090;6.350;2023-09-19T10:28:06;4.88;;;1.40;;
64609;SDS011;51019;46.090;6.350;2023-09-19T10:30:36;5.25;;;1.42;;
64609;SDS011;51019;46.090;6.350;2023-09-19T10:33:07;4.13;;;1.40;;
64609;SDS011;51019;46.090;6.350;2023-09-19T10:35:36;4.55;;;1.17;;
64609;SDS011;51019;46.090;6.350;2023-09-19T10:38:06;6.25;;;1.30;;
64609;SDS011;51019;46.090;6.350;2023-09-19T10:40:38;2.58;;;1.13;;
64609;SDS011;51019;46.090;6.350;2023-09-19T10:43:11;5.82;;;1.48;;
64609;SDS011;51019;46.090;6.350;2023-09-19T10:45:42;6.45;;;1.52;;
64609;SDS011;51019;46.090;6.350;2023-09-19T10:48:12;5.35;;;1.50;;
64609;SDS011;51019;46.090;6.350;2023-09-19T10:50:42;6.20;;;1.30;;
64609;SDS011;51019;46.090;6.350;2023-09-19T10:53:14;4.85;;;1.33;;
64609;SDS011;51019;46.090;6.350;2023-09-19T10:55:50;4.05;;;1.50;;
64609;SDS011;51019;46.090;6.350;2023-09-19T10:58:26;4.88;;;1.48;;
64609;SDS011;51019;46.090;6.350;2023-09-19T11:00:55;4.88;;;1.30;;
64609;SDS011;51019;46.090;6.350;2023-09-19T11:06:02;4.90;;;1.50;;
64609;SDS011;51019;46.090;6.350;2023-09-19T11:08:54;5.10;;;1.40;;
64609;SDS011;51019;46.090;6.350;2023-09-19T11:11:43;4.43;;;1.48;;
64609;SDS011;51019;46.090;6.350;2023-09-19T11:14:30;4.15;;;1.30;;
64609;SDS011;51019;46.090;6.350;2023-09-19T11:20:19;4.57;;;1.50;;
64609;SDS011;51019;46.090;6.350;2023-09-19T11:23:20;6.43;;;1.58;;
64609;SDS011;51019;46.090;6.350;2023-09-19T11:25:54;4.35;;;1.30;;
64609;SDS011;51019;46.090;6.350;2023-09-19T11:28:33;4.47;;;1.40;;
64609;SDS011;51019;46.090;6.350;2023-09-19T11:40:44;5.15;;;1.35;;
64609;SDS011;51019;46.090;6.350;2023-09-19T11:43:29;5.43;;;1.50;;
64609;SDS011;51019;46.090;6.350;2023-09-19T11:46:07;4.88;;;1.33;;
64609;SDS011;51019;46.090;6.350;2023-09-19T11:48:40;6.28;;;1.50;;
64609;SDS011;51019;46.090;6.350;2023-09-19T11:51:12;4.43;;;1.67;;
64609;SDS011;51019;46.090;6.350;2023-09-19T11:53:53;3.80;;;1.27;;
64609;SDS011;51019;46.090;6.350;2023-09-19T11:56:24;4.63;;;1.45;;
64609;SDS011;51019;46.090;6.350;2023-09-19T11:58:53;5.25;;;1.50;;
64609;SDS011;51019;46.090;6.350;2023-09-19T12:01:23;4.93;;;1.42;;
64609;SDS011;51019;46.090;6.350;2023-09-19T12:03:54;4.25;;;1.60;;
64609;SDS011;51019;46.090;6.350;2023-09-19T12:06:23;3.08;;;1.30;;
64609;SDS011;51019;46.090;6.350;2023-09-19T12:08:51;5.80;;;1.42;;
64609;SDS011;51019;46.090;6.350;2023-09-19T12:11:20;5.15;;;1.65;;
64609;SDS011;51019;46.090;6.350;2023-09-19T12:13:49;5.70;;;1.50;;
64609;SDS011;51019;46.090;6.350;2023-09-19T12:16:19;7.40;;;1.60;;
64609;SDS011;51019;46.090;6.350;2023-09-19T12:18:50;4.22;;;1.45;;
64609;SDS011;51019;46.090;6.350;2023-09-19T12:21:22;5.53;;;1.48;;
64609;SDS011;51019;46.090;6.350;2023-09-19T12:23:59;4.50;;;1.50;;
64609;SDS011;51019;46.090;6.350;2023-09-19T12:26:39;4.57;;;1.42;;
64609;SDS011;51019;46.090;6.350;2023-09-19T12:29:11;3.08;;;1.35;;
64609;SDS011;51019;46.090;6.350;2023-09-19T12:31:47;5.38;;;1.50;;
64609;SDS011;51019;46.090;6.350;2023-09-19T12:34:18;5.88;;;1.40;;
64609;SDS011;51019;46.090;6.350;2023-09-19T12:36:47;5.70;;;1.50;;
64609;SDS011;51019;46.090;6.350;2023-09-19T12:39:23;4.68;;;1.40;;
64609;SDS011;51019;46.090;6.350;2023-09-19T12:41:52;6.25;;;1.83;;
64609;SDS011;51019;46.090;6.350;2023-09-19T12:44:22;3.67;;;1.50;;
64609;SDS011;51019;46.090;6.350;2023-09-19T12:46:50;5.10;;;1.42;;
64609;SDS011;51019;46.090;6.350;2023-09-19T12:49:21;6.70;;;2.00;;
64609;SDS011;51019;46.090;6.350;2023-09-19T12:51:48;4.10;;;1.27;;
64609;SDS011;51019;46.090;6.350;2023-09-19T12:54:21;3.85;;;1.30;;
64609;SDS011;51019;46.090;6.350;2023-09-19T12:56:50;4.07;;;1.30;;
64609;SDS011;51019;46.090;6.350;2023-09-19T12:59:19;6.30;;;1.60;;
64609;SDS011;51019;46.090;6.350;2023-09-19T13:02:03;5.88;;;1.45;;
64609;SDS011;51019;46.090;6.350;2023-09-19T13:04:34;6.38;;;1.42;;
64609;SDS011;51019;46.090;6.350;2023-09-19T13:07:05;6.72;;;1.52;;
64609;SDS011;51019;46.090;6.350;2023-09-19T13:09:34;5.45;;;1.70;;
64609;SDS011;51019;46.090;6.350;2023-09-19T13:12:04;6.70;;;1.63;;
64609;SDS011;51019;46.090;6.350;2023-09-19T13:14:32;5.88;;;1.50;;
64609;SDS011;51019;46.090;6.350;2023-09-19T13:17:06;6.15;;;1.70;;
64609;SDS011;51019;46.090;6.350;2023-09-19T13:19:43;4.18;;;1.50;;
64609;SDS011;51019;46.090;6.350;2023-09-19T13:25:05;9.38;;;1.60;;
64609;SDS011;51019;46.090;6.350;2023-09-19T13:27:33;3.60;;;1.40;;
64609;SDS011;51019;46.090;6.350;2023-09-19T13:30:00;4.30;;;1.25;;
64609;SDS011;51019;46.090;6.350;2023-09-19T13:32:27;3.78;;;1.50;;
64609;SDS011;51019;46.090;6.350;2023-09-19T13:35:01;5.65;;;1.67;;
64609;SDS011;51019;46.090;6.350;2023-09-19T13:37:30;5.65;;;1.50;;
64609;SDS011;51019;46.090;6.350;2023-09-19T13:39:57;5.80;;;1.60;;
64609;SDS011;51019;46.090;6.350;2023-09-19T13:42:25;3.85;;;1.40;;
64609;SDS011;51019;46.090;6.350;2023-09-19T13:44:54;4.55;;;1.48;;
64609;SDS011;51019;46.090;6.350;2023-09-19T13:47:21;6.03;;;1.48;;
64609;SDS011;51019;46.090;6.350;2023-09-19T13:49:51;6.82;;;1.70;;
64609;SDS011;51019;46.090;6.350;2023-09-19T13:52:21;4.47;;;1.42;;
64609;SDS011;51019;46.090;6.350;2023-09-19T13:54:48;5.47;;;1.52;;
64609;SDS011;51019;46.090;6.350;2023-09-19T13:57:16;3.47;;;1.30;;
64609;SDS011;51019;46.090;6.350;2023-09-19T13:59:43;7.97;;;1.85;;
64609;SDS011;51019;46.090;6.350;2023-09-19T14:02:10;4.63;;;1.40;;
64609;SDS011;51019;46.090;6.350;2023-09-19T14:04:39;4.47;;;1.40;;
64609;SDS011;51019;46.090;6.350;2023-09-19T14:07:06;9.00;;;2.17;;
64609;SDS011;51019;46.090;6.350;2023-09-19T14:09:36;4.90;;;1.42;;
64609;SDS011;51019;46.090;6.350;2023-09-19T14:12:03;2.83;;;1.30;;
64609;SDS011;51019;46.090;6.350;2023-09-19T14:14:31;6.22;;;1.60;;
64609;SDS011;51019;46.090;6.350;2023-09-19T14:16:58;4.80;;;1.33;;
64609;SDS011;51019;46.090;6.350;2023-09-19T14:19:26;5.97;;;1.70;;
64609;SDS011;51019;46.090;6.350;2023-09-19T14:21:53;7.15;;;1.95;;
64609;SDS011;51019;46.090;6.350;2023-09-19T14:24:21;5.10;;;1.30;;
64609;SDS011;51019;46.090;6.350;2023-09-19T14:26:51;5.72;;;1.67;;
64609;SDS011;51019;46.090;6.350;2023-09-19T14:29:17;6.30;;;1.70;;
64609;SDS011;51019;46.090;6.350;2023-09-19T14:31:45;5.47;;;1.58;;
64609;SDS011;51019;46.090;6.350;2023-09-19T14:34:12;4.63;;;1.55;;
64609;SDS011;51019;46.090;6.350;2023-09-19T14:36:40;4.80;;;1.60;;
64609;SDS011;51019;46.090;6.350;2023-09-19T14:39:06;5.63;;;1.85;;
64609;SDS011;51019;46.090;6.350;2023-09-19T14:41:34;3.95;;;1.55;;
64609;SDS011;51019;46.090;6.350;2023-09-19T14:44:04;6.72;;;1.65;;
64609;SDS011;51019;46.090;6.350;2023-09-19T14:46:31;6.90;;;2.00;;
64609;SDS011;51019;46.090;6.350;2023-09-19T14:48:58;6.18;;;1.83;;
64609;SDS011;51019;46.090;6.350;2023-09-19T14:51:29;5.95;;;2.00;;
64609;SDS011;51019;46.090;6.350;2023-09-19T14:53:56;8.45;;;1.98;;
64609;SDS011;51019;46.090;6.350;2023-09-19T14:56:23;7.35;;;1.77;;
64609;SDS011;51019;46.090;6.350;2023-09-19T14:58:50;4.28;;;1.70;;
64609;SDS011;51019;46.090;6.350;2023-09-19T15:01:19;5.63;;;1.73;;
64609;SDS011;51019;46.090;6.350;2023-09-19T15:03:47;6.10;;;1.80;;
64609;SDS011;51019;46.090;6.350;2023-09-19T15:06:14;6.78;;;1.90;;
64609;SDS011;51019;46.090;6.350;2023-09-19T15:08:42;6.70;;;1.73;;
64609;SDS011;51019;46.090;6.350;2023-09-19T15:11:12;6.28;;;1.80;;
64609;SDS011;51019;46.090;6.350;2023-09-19T15:13:42;7.25;;;1.70;;
64609;SDS011;51019;46.090;6.350;2023-09-19T15:16:09;7.47;;;1.85;;
64609;SDS011;51019;46.090;6.350;2023-09-19T15:18:39;4.75;;;1.70;;
64609;SDS011;51019;46.090;6.350;2023-09-19T15:21:08;6.40;;;1.60;;
64609;SDS011;51019;46.090;6.350;2023-09-19T15:23:40;6.57;;;1.98;;
64609;SDS011;51019;46.090;6.350;2023-09-19T15:26:14;7.85;;;1.95;;
64609;SDS011;51019;46.090;6.350;2023-09-19T15:28:45;9.38;;;2.10;;